Time,TemperatureF,DewpointF,PressureIn,WindDirection,WindDirectionDegrees,WindSpeedMPH,WindSpeedGustMPH,Humidity,HourlyPrecipIn,Conditions,Clouds,dailyrainin,SoftwareType,DateUTC
2012-05-13 00:01:00,62.0,61.1,30.09,WNW,298,0.0,0.0,97,0.00,,,0.00,VWS V13.01,2012-05-13 05:01:00,
2012-05-13 00:06:00,62.0,61.1,30.09,WNW,298,0.0,0.0,97,0.00,,,0.00,VWS V13.01,2012-05-13 05:06:00,
2012-05-13 00:11:00,62.2,61.3,30.09,WNW,298,0.0,0.0,97,0.00,,,0.00,VWS V13.01,2012-05-13 05:11:00,
2012-05-13 00:16:00,62.2,61.6,30.09,WNW,298,0.0,0.0,98,0.00,,,0.00,VWS V13.01,2012-05-13 05:16:00,
2012-05-13 00:21:00,62.4,61.8,30.09,WNW,298,0.0,0.0,98,0.00,,,0.00,VWS V13.01,2012-05-13 05:21:00,
2012-05-13 00:26:00,62.4,61.8,30.09,WNW,298,0.0,0.0,98,0.00,,,0.00,VWS V13.01,2012-05-13 05:26:00,
2012-05-13 00:31:00,62.4,61.8,30.09,WNW,298,0.0,0.0,98,0.00,,,0.00,VWS V13.01,2012-05-13 05:31:00,
2012-05-13 00:36:00,62.4,61.8,30.09,WNW,298,0.0,0.0,98,0.00,,,0.00,VWS V13.01,2012-05-13 05:36:00,
2012-05-13 00:41:00,62.4,61.8,30.09,WNW,298,0.0,0.0,98,0.00,,,0.00,VWS V13.01,2012-05-13 05:41:00,
2012-05-13 00:46:00,62.4,61.8,30.09,WNW,298,0.0,0.0,98,0.00,,,0.00,VWS V13.01,2012-05-13 05:46:00,
2012-05-13 00:51:00,62.5,62.0,30.09,WNW,298,0.0,0.0,98,0.00,,,0.00,VWS V13.01,2012-05-13 05:51:00,
2012-05-13 00:56:00,62.4,61.8,30.09,WNW,298,0.0,0.0,98,0.00,,,0.00,VWS V13.01,2012-05-13 05:56:00,
2012-05-13 01:01:00,62.4,61.8,30.09,WNW,298,0.0,0.0,98,0.00,,,0.00,VWS V13.01,2012-05-13 06:01:00,
2012-05-13 01:06:00,62.2,61.6,30.09,WNW,298,0.0,0.0,98,0.00,,,0.00,VWS V13.01,2012-05-13 06:06:00,
2012-05-13 01:11:00,62.2,61.6,30.09,WNW,298,0.0,0.0,98,0.00,,,0.00,VWS V13.01,2012-05-13 06:11:00,
2012-05-13 01:16:00,62.0,61.4,30.09,WNW,298,0.0,0.0,98,0.00,,,0.00,VWS V13.01,2012-05-13 06:16:00,
2012-05-13 01:21:00,61.8,61.2,30.09,WNW,298,0.0,0.0,98,0.00,,,0.00,VWS V13.01,2012-05-13 06:21:00,
2012-05-13 01:26:00,61.6,61.1,30.09,WNW,298,0.0,0.0,98,0.00,,,0.00,VWS V13.01,2012-05-13 06:26:00,
2012-05-13 01:31:00,61.6,61.1,30.09,WNW,298,0.0,0.0,98,0.00,,,0.00,VWS V13.01,2012-05-13 06:31:00,
2012-05-13 01:36:00,61.3,61.0,30.09,ENE,61,0.0,0.0,99,0.00,,,0.00,VWS V13.01,2012-05-13 06:36:00,
2012-05-13 01:41:00,61.3,61.0,30.09,ENE,61,0.0,0.0,99,0.00,,,0.00,VWS V13.01,2012-05-13 06:41:00,
2012-05-13 01:46:00,61.1,61.1,30.09,NE,45,0.0,0.0,100,0.00,,,0.00,VWS V13.01,2012-05-13 06:46:00,
2012-05-13 01:51:00,61.1,61.1,30.09,NE,45,0.0,0.0,100,0.00,,,0.00,VWS V13.01,2012-05-13 06:51:00,
2012-05-13 01:56:00,60.9,60.9,30.09,NE,45,0.0,0.0,100,0.00,,,0.00,VWS V13.01,2012-05-13 06:56:00,
2012-05-13 02:01:00,60.7,60.7,30.09,NE,45,0.0,0.0,100,0.00,,,0.00,VWS V13.01,2012-05-13 07:01:00,
2012-05-13 02:06:00,60.6,60.6,30.09,NE,45,0.0,0.0,100,0.00,,,0.00,VWS V13.01,2012-05-13 07:06:00,
2012-05-13 02:11:00,60.6,60.6,30.09,NE,45,0.0,0.0,100,0.00,,,0.00,VWS V13.01,2012-05-13 07:11:00,
2012-05-13 02:16:00,60.4,60.4,30.06,NE,45,0.0,0.0,100,0.00,,,0.00,VWS V13.01,2012-05-13 07:16:00,
2012-05-13 02:21:00,60.2,60.2,30.06,NE,45,0.0,0.0,100,0.00,,,0.00,VWS V13.01,2012-05-13 07:21:00,
2012-05-13 02:26:00,60.2,60.2,30.06,North,9,0.0,0.0,100,0.00,,,0.00,VWS V13.01,2012-05-13 07:26:00,
2012-05-13 02:31:00,60.2,60.2,30.09,North,8,0.0,0.0,100,0.00,,,0.00,VWS V13.01,2012-05-13 07:31:00,
2012-05-13 02:36:00,60.0,60.0,30.09,North,8,0.0,0.0,100,0.00,,,0.00,VWS V13.01,2012-05-13 07:36:00,
2012-05-13 02:41:00,60.0,60.0,30.09,North,8,0.0,0.0,100,0.00,,,0.00,VWS V13.01,2012-05-13 07:41:00,
2012-05-13 02:46:00,59.8,59.8,30.06,North,8,0.0,0.0,100,0.00,,,0.00,VWS V13.01,2012-05-13 07:46:00,
2012-05-13 02:51:00,59.8,59.8,30.06,North,8,0.0,0.0,100,0.00,,,0.00,VWS V13.01,2012-05-13 07:51:00,
2012-05-13 02:56:00,59.8,59.8,30.06,North,8,0.0,0.0,100,0.00,,,0.00,VWS V13.01,2012-05-13 07:56:00,
2012-05-13 03:01:00,59.8,59.8,30.06,North,8,0.0,0.0,100,0.00,,,0.00,VWS V13.01,2012-05-13 08:01:00,
2012-05-13 03:06:00,59.7,59.7,30.06,North,8,0.0,0.0,100,0.00,,,0.00,VWS V13.01,2012-05-13 08:06:00,
2012-05-13 03:11:00,59.7,59.7,30.06,North,8,0.0,0.0,100,0.00,,,0.00,VWS V13.01,2012-05-13 08:11:00,
2012-05-13 03:16:00,59.5,59.5,30.06,North,8,0.0,0.0,100,0.00,,,0.00,VWS V13.01,2012-05-13 08:16:00,
2012-05-13 03:21:00,59.5,59.5,30.06,North,8,0.0,0.0,100,0.00,,,0.00,VWS V13.01,2012-05-13 08:21:00,
2012-05-13 03:26:00,59.3,59.3,30.06,North,8,0.0,0.0,100,0.00,,,0.00,VWS V13.01,2012-05-13 08:26:00,
2012-05-13 03:31:00,59.1,59.1,30.06,North,8,0.0,0.0,100,0.00,,,0.00,VWS V13.01,2012-05-13 08:31:00,
2012-05-13 03:36:00,59.1,59.1,30.06,North,8,0.0,0.0,100,0.00,,,0.00,VWS V13.01,2012-05-13 08:36:00,
2012-05-13 03:41:00,59.1,59.1,30.06,North,8,0.0,0.0,100,0.00,,,0.00,VWS V13.01,2012-05-13 08:41:00,
2012-05-13 03:46:00,59.1,59.1,30.06,North,8,0.0,0.0,100,0.00,,,0.00,VWS V13.01,2012-05-13 08:46:00,
2012-05-13 03:51:00,59.1,59.1,30.06,North,8,0.0,0.0,100,0.00,,,0.00,VWS V13.01,2012-05-13 08:51:00,
2012-05-13 03:56:00,59.1,59.1,30.06,North,7,0.0,0.0,100,0.00,,,0.00,VWS V13.01,2012-05-13 08:56:00,
2012-05-13 04:01:00,59.1,59.1,30.06,North,8,0.0,0.0,100,0.00,,,0.00,VWS V13.01,2012-05-13 09:01:00,
2012-05-13 04:06:00,59.1,59.1,30.06,North,8,0.0,0.0,100,0.00,,,0.00,VWS V13.01,2012-05-13 09:06:00,
2012-05-13 04:11:00,58.9,58.9,30.06,North,8,0.0,0.0,100,0.00,,,0.00,VWS V13.01,2012-05-13 09:11:00,
2012-05-13 04:16:00,58.9,58.9,30.06,North,7,0.0,0.0,100,0.00,,,0.00,VWS V13.01,2012-05-13 09:16:00,
2012-05-13 04:21:00,58.9,58.9,30.06,North,8,0.0,0.0,100,0.00,,,0.00,VWS V13.01,2012-05-13 09:21:00,
2012-05-13 04:26:00,58.9,58.9,30.06,North,8,0.0,0.0,100,0.00,,,0.00,VWS V13.01,2012-05-13 09:26:00,
2012-05-13 04:31:00,59.1,59.1,30.06,NW,313,0.0,0.0,100,0.00,,,0.00,VWS V13.01,2012-05-13 09:31:00,
2012-05-13 04:36:00,59.1,59.1,30.06,West,259,0.0,0.0,100,0.00,,,0.00,VWS V13.01,2012-05-13 09:36:00,
2012-05-13 04:41:00,58.9,58.9,30.06,West,259,0.0,0.0,100,0.00,,,0.00,VWS V13.01,2012-05-13 09:41:00,
2012-05-13 04:46:00,58.9,58.9,30.06,West,259,0.0,0.0,100,0.00,,,0.00,VWS V13.01,2012-05-13 09:46:00,
2012-05-13 04:51:00,58.9,58.9,30.06,West,259,0.0,0.0,100,0.00,,,0.00,VWS V13.01,2012-05-13 09:51:00,
2012-05-13 04:56:00,58.8,58.8,30.06,West,259,0.0,0.0,100,0.00,,,0.00,VWS V13.01,2012-05-13 09:56:00,
2012-05-13 05:01:00,58.9,58.9,30.06,West,259,0.0,0.0,100,0.00,,,0.00,VWS V13.01,2012-05-13 10:01:00,
2012-05-13 05:06:00,58.9,58.9,30.06,West,259,0.0,0.0,100,0.00,,,0.00,VWS V13.01,2012-05-13 10:06:00,
2012-05-13 05:11:00,58.8,58.8,30.06,West,259,0.0,0.0,100,0.00,,,0.00,VWS V13.01,2012-05-13 10:11:00,
2012-05-13 05:16:00,58.4,58.4,30.09,West,259,0.0,0.0,100,0.00,,,0.00,VWS V13.01,2012-05-13 10:16:00,
2012-05-13 05:21:00,58.4,58.4,30.09,West,259,0.0,0.0,100,0.00,,,0.00,VWS V13.01,2012-05-13 10:21:00,
2012-05-13 05:26:00,58.2,58.2,30.09,West,259,0.0,0.0,100,0.00,,,0.00,VWS V13.01,2012-05-13 10:26:00,
2012-05-13 05:31:00,58.2,58.2,30.09,West,259,0.0,0.0,100,0.00,,,0.00,VWS V13.01,2012-05-13 10:31:00,
2012-05-13 05:36:00,58.0,58.0,30.09,West,259,0.0,0.0,100,0.00,,,0.00,VWS V13.01,2012-05-13 10:36:00,
2012-05-13 05:41:00,57.9,57.9,30.09,West,259,0.0,0.0,100,0.00,,,0.00,VWS V13.01,2012-05-13 10:41:00,
2012-05-13 05:46:00,57.9,57.9,30.09,West,259,0.0,0.0,100,0.00,,,0.00,VWS V13.01,2012-05-13 10:46:00,
2012-05-13 05:51:00,57.9,57.9,30.09,West,259,0.0,0.0,100,0.00,,,0.00,VWS V13.01,2012-05-13 10:51:00,
2012-05-13 05:56:00,57.9,57.9,30.09,West,259,0.0,0.0,100,0.00,,,0.00,VWS V13.01,2012-05-13 10:56:00,
2012-05-13 06:01:00,57.7,57.7,30.09,West,259,0.0,0.0,100,0.00,,,0.00,VWS V13.01,2012-05-13 11:01:00,
2012-05-13 06:06:00,57.5,57.5,30.09,West,259,0.0,0.0,100,0.00,,,0.00,VWS V13.01,2012-05-13 11:06:00,
2012-05-13 06:11:00,57.5,57.5,30.09,West,259,0.0,0.0,100,0.00,,,0.00,VWS V13.01,2012-05-13 11:11:00,
2012-05-13 06:16:00,57.3,57.3,30.09,West,259,0.0,0.0,100,0.00,,,0.00,VWS V13.01,2012-05-13 11:16:00,
2012-05-13 06:21:00,57.1,57.1,30.09,West,259,0.0,0.0,100,0.00,,,0.00,VWS V13.01,2012-05-13 11:21:00,
2012-05-13 06:26:00,57.0,57.0,30.09,West,259,0.0,0.0,100,0.00,,,0.00,VWS V13.01,2012-05-13 11:26:00,
2012-05-13 06:31:00,57.0,57.0,30.09,West,259,0.0,0.0,100,0.00,,,0.00,VWS V13.01,2012-05-13 11:31:00,
2012-05-13 06:36:00,57.0,57.0,30.09,West,259,0.0,0.0,100,0.00,,,0.00,VWS V13.01,2012-05-13 11:36:00,
2012-05-13 06:41:00,57.1,57.1,30.09,West,259,0.0,0.0,100,0.00,,,0.00,VWS V13.01,2012-05-13 11:41:00,
2012-05-13 06:46:00,57.1,57.1,30.09,West,259,0.0,0.0,100,0.00,,,0.00,VWS V13.01,2012-05-13 11:46:00,
2012-05-13 06:51:00,57.0,57.0,30.09,West,259,0.0,0.0,100,0.00,,,0.00,VWS V13.01,2012-05-13 11:51:00,
2012-05-13 06:56:00,57.1,57.1,30.09,West,259,0.0,0.0,100,0.00,,,0.00,VWS V13.01,2012-05-13 11:56:00,
2012-05-13 07:01:00,57.3,57.3,30.09,West,259,0.0,0.0,100,0.00,,,0.00,VWS V13.01,2012-05-13 12:01:00,
2012-05-13 07:06:00,57.5,57.5,30.09,West,259,0.0,0.0,100,0.00,,,0.00,VWS V13.01,2012-05-13 12:06:00,
2012-05-13 07:11:00,57.7,57.7,30.09,West,259,0.0,0.0,100,0.00,,,0.00,VWS V13.01,2012-05-13 12:11:00,
2012-05-13 07:16:00,57.9,57.9,30.09,West,259,0.0,0.0,100,0.00,,,0.00,VWS V13.01,2012-05-13 12:16:00,
2012-05-13 07:21:00,58.2,58.2,30.09,West,259,0.0,0.0,100,0.00,,,0.00,VWS V13.01,2012-05-13 12:21:00,
2012-05-13 07:26:00,58.4,58.4,30.09,West,259,0.0,0.0,100,0.00,,,0.00,VWS V13.01,2012-05-13 12:26:00,
2012-05-13 07:31:00,58.8,58.8,30.12,West,259,0.0,0.0,100,0.00,,,0.00,VWS V13.01,2012-05-13 12:31:00,
2012-05-13 07:36:00,59.1,59.1,30.12,West,259,0.0,0.0,100,0.00,,,0.00,VWS V13.01,2012-05-13 12:36:00,
2012-05-13 07:41:00,59.5,59.5,30.12,West,259,0.0,0.0,100,0.00,,,0.00,VWS V13.01,2012-05-13 12:41:00,
2012-05-13 07:46:00,59.8,59.8,30.12,West,259,0.0,0.0,100,0.00,,,0.00,VWS V13.01,2012-05-13 12:46:00,
2012-05-13 07:51:00,60.6,60.6,30.12,West,259,0.0,0.0,100,0.00,,,0.00,VWS V13.01,2012-05-13 12:51:00,
2012-05-13 07:56:00,60.9,60.9,30.12,South,174,0.0,0.0,100,0.00,,,0.00,VWS V13.01,2012-05-13 12:56:00,
2012-05-13 08:01:00,61.3,61.3,30.12,SE,143,0.0,0.0,100,0.00,,,0.00,VWS V13.01,2012-05-13 13:01:00,
2012-05-13 08:06:00,61.6,61.6,30.12,SSE,150,0.0,0.0,100,0.00,,,0.00,VWS V13.01,2012-05-13 13:06:00,
2012-05-13 08:11:00,61.8,61.8,30.12,SE,135,0.0,0.0,100,0.00,,,0.00,VWS V13.01,2012-05-13 13:11:00,
2012-05-13 08:16:00,62.0,62.0,30.12,WSW,237,0.0,0.0,100,0.00,,,0.00,VWS V13.01,2012-05-13 13:16:00,
2012-05-13 08:21:00,62.2,62.2,30.12,South,177,3.1,3.1,100,0.00,,,0.00,VWS V13.01,2012-05-13 13:21:00,
2012-05-13 08:26:00,62.5,62.5,30.12,SE,131,3.6,3.6,100,0.00,,,0.00,VWS V13.01,2012-05-13 13:26:00,
2012-05-13 08:31:00,62.9,62.9,30.12,SSE,155,3.1,3.6,100,0.00,,,0.00,VWS V13.01,2012-05-13 13:31:00,
2012-05-13 08:36:00,63.1,63.1,30.12,SSW,195,2.2,3.6,100,0.00,,,0.00,VWS V13.01,2012-05-13 13:36:00,
2012-05-13 08:41:00,63.4,63.4,30.12,SSE,167,2.2,3.1,100,0.00,,,0.00,VWS V13.01,2012-05-13 13:41:00,
2012-05-13 08:46:00,64.0,64.0,30.12,SW,223,0.0,0.0,100,0.00,,,0.00,VWS V13.01,2012-05-13 13:46:00,
2012-05-13 08:51:00,64.5,64.5,30.12,SSW,192,0.0,0.0,100,0.00,,,0.00,VWS V13.01,2012-05-13 13:51:00,
2012-05-13 08:56:00,65.1,65.1,30.12,SSE,152,2.2,3.1,100,0.00,,,0.00,VWS V13.01,2012-05-13 13:56:00,
2012-05-13 09:01:00,65.6,65.6,30.12,SSW,207,0.0,0.0,100,0.00,,,0.00,VWS V13.01,2012-05-13 14:01:00,
2012-05-13 09:06:00,66.0,66.0,30.12,SSW,206,0.0,0.0,100,0.00,,,0.00,VWS V13.01,2012-05-13 14:06:00,
2012-05-13 09:11:00,66.3,66.3,30.12,South,182,0.0,0.0,100,0.00,,,0.00,VWS V13.01,2012-05-13 14:11:00,
2012-05-13 09:16:00,66.9,63.2,30.12,SW,231,2.7,2.7,88,0.00,,,0.00,VWS V13.01,2012-05-13 14:16:00,
2012-05-13 09:21:00,67.4,58.8,30.12,WSW,248,0.0,0.0,74,0.00,,,0.00,VWS V13.01,2012-05-13 14:21:00,
2012-05-13 09:26:00,68.5,58.7,30.12,South,173,0.0,0.0,71,0.00,,,0.00,VWS V13.01,2012-05-13 14:26:00,
2012-05-13 09:31:00,69.2,57.8,30.12,South,170,4.0,4.0,67,0.00,,,0.00,VWS V13.01,2012-05-13 14:31:00,
2012-05-13 09:36:00,69.7,57.9,30.12,South,169,2.7,2.7,66,0.00,,,0.00,VWS V13.01,2012-05-13 14:36:00,
2012-05-13 09:41:00,70.1,56.0,30.12,WSW,246,2.7,2.7,61,0.00,,,0.00,VWS V13.01,2012-05-13 14:41:00,
2012-05-13 09:46:00,70.6,56.5,30.12,South,171,2.7,3.6,61,0.00,,,0.00,VWS V13.01,2012-05-13 14:46:00,
2012-05-13 09:51:00,71.0,56.4,30.12,SW,227,3.1,3.6,60,0.00,,,0.00,VWS V13.01,2012-05-13 14:51:00,
2012-05-13 09:56:00,71.4,55.8,30.12,WSW,246,0.0,0.0,58,0.00,,,0.00,VWS V13.01,2012-05-13 14:56:00,
2012-05-13 10:01:00,71.9,56.3,30.12,South,183,3.1,3.1,58,0.00,,,0.00,VWS V13.01,2012-05-13 15:01:00,
2012-05-13 10:06:00,72.6,56.5,30.12,South,172,3.1,5.4,57,0.00,,,0.00,VWS V13.01,2012-05-13 15:06:00,
2012-05-13 10:11:00,73.3,57.7,30.12,SW,226,2.7,4.9,58,0.00,,,0.00,VWS V13.01,2012-05-13 15:11:00,
2012-05-13 10:16:00,73.9,56.2,30.12,WSW,244,2.2,4.0,54,0.00,,,0.00,VWS V13.01,2012-05-13 15:16:00,
2012-05-13 10:21:00,74.4,56.2,30.12,SE,128,2.7,3.1,53,0.00,,,0.00,VWS V13.01,2012-05-13 15:21:00,
2012-05-13 10:26:00,74.6,56.4,30.12,South,189,5.4,5.4,53,0.00,,,0.00,VWS V13.01,2012-05-13 15:26:00,
2012-05-13 10:31:00,74.6,55.8,30.09,South,181,3.1,5.4,52,0.00,,,0.00,VWS V13.01,2012-05-13 15:31:00,
2012-05-13 10:36:00,74.6,55.8,30.09,ENE,73,4.0,6.3,52,0.00,,,0.00,VWS V13.01,2012-05-13 15:36:00,
2012-05-13 10:41:00,75.1,56.3,30.09,West,277,0.0,4.0,52,0.00,,,0.00,VWS V13.01,2012-05-13 15:41:00,
2012-05-13 10:46:00,75.9,56.5,30.09,East,97,2.7,3.1,51,0.00,,,0.00,VWS V13.01,2012-05-13 15:46:00,
2012-05-13 10:51:00,76.6,56.0,30.09,ESE,111,0.0,4.0,49,0.00,,,0.00,VWS V13.01,2012-05-13 15:51:00,
2012-05-13 10:56:00,76.6,55.4,30.09,SE,125,0.0,2.7,48,0.00,,,0.00,VWS V13.01,2012-05-13 15:56:00,
2012-05-13 11:01:00,76.8,55.0,30.09,WSW,244,3.1,3.1,47,0.00,,,0.00,VWS V13.01,2012-05-13 16:01:00,
2012-05-13 11:06:00,77.5,55.1,30.09,WSW,243,2.2,2.2,46,0.00,,,0.00,VWS V13.01,2012-05-13 16:06:00,
2012-05-13 11:11:00,78.4,54.7,30.09,North,4,2.2,2.7,44,0.00,,,0.00,VWS V13.01,2012-05-13 16:11:00,
2012-05-13 11:16:00,79.1,54.7,30.09,West,261,2.7,3.6,43,0.00,,,0.00,VWS V13.01,2012-05-13 16:16:00,
2012-05-13 11:21:00,78.7,54.4,30.09,WSW,252,4.0,4.9,43,0.00,,,0.00,VWS V13.01,2012-05-13 16:21:00,
2012-05-13 11:26:00,78.4,54.1,30.09,ESE,121,2.7,3.1,43,0.00,,,0.00,VWS V13.01,2012-05-13 16:26:00,
2012-05-13 11:31:00,78.6,54.2,30.09,East,89,2.7,2.7,43,0.00,,,0.00,VWS V13.01,2012-05-13 16:31:00,
2012-05-13 11:36:00,79.3,53.6,30.09,ESE,116,4.0,6.3,41,0.00,,,0.00,VWS V13.01,2012-05-13 16:36:00,
2012-05-13 11:41:00,80.0,53.5,30.09,NE,42,5.8,5.8,40,0.00,,,0.00,VWS V13.01,2012-05-13 16:41:00,
2012-05-13 11:46:00,80.9,52.9,30.09,NNE,16,6.3,7.2,38,0.00,,,0.00,VWS V13.01,2012-05-13 16:46:00,
2012-05-13 11:51:00,81.6,55.0,30.09,ENE,65,3.1,4.0,40,0.00,,,0.00,VWS V13.01,2012-05-13 16:51:00,
2012-05-13 11:56:00,82.2,53.3,30.09,ESE,102,5.8,5.8,37,0.00,,,0.00,VWS V13.01,2012-05-13 16:56:00,
2012-05-13 12:01:00,82.7,53.1,30.09,NE,35,3.6,4.9,36,0.00,,,0.00,VWS V13.01,2012-05-13 17:01:00,
2012-05-13 12:06:00,81.6,50.6,30.09,NNE,21,6.3,8.3,34,0.00,,,0.00,VWS V13.01,2012-05-13 17:06:00,
2012-05-13 12:11:00,82.0,50.1,30.09,NE,47,3.1,5.4,33,0.00,,,0.00,VWS V13.01,2012-05-13 17:11:00,
2012-05-13 12:16:00,82.9,50.9,30.09,ENE,61,3.1,6.3,33,0.00,,,0.00,VWS V13.01,2012-05-13 17:16:00,
2012-05-13 12:21:00,83.1,51.0,30.09,NNW,341,5.4,6.3,33,0.00,,,0.00,VWS V13.01,2012-05-13 17:21:00,
2012-05-13 12:26:00,82.5,49.7,30.09,NNE,23,8.3,8.3,32,0.00,,,0.00,VWS V13.01,2012-05-13 17:26:00,
2012-05-13 12:31:00,82.0,50.1,30.09,North,349,3.6,3.6,33,0.00,,,0.00,VWS V13.01,2012-05-13 17:31:00,
2012-05-13 12:36:00,82.5,50.5,30.09,NNW,346,5.8,5.8,33,0.00,,,0.00,VWS V13.01,2012-05-13 17:36:00,
2012-05-13 12:41:00,82.5,50.5,30.09,WNW,292,7.6,8.1,33,0.00,,,0.00,VWS V13.01,2012-05-13 17:41:00,
2012-05-13 12:46:00,82.5,50.5,30.09,North,10,7.6,10.1,33,0.00,,,0.00,VWS V13.01,2012-05-13 17:46:00,
2012-05-13 12:51:00,82.5,50.5,30.09,NE,34,4.0,5.8,33,0.00,,,0.00,VWS V13.01,2012-05-13 17:51:00,
2012-05-13 12:56:00,83.1,51.0,30.09,North,6,3.1,3.1,33,0.00,,,0.00,VWS V13.01,2012-05-13 17:56:00,
2012-05-13 13:02:00,82.9,50.9,30.09,NNE,23,4.9,7.6,33,0.00,,,0.00,VWS V13.01,2012-05-13 18:02:00,
2012-05-13 13:07:00,83.1,51.0,30.09,ESE,111,5.4,5.4,33,0.00,,,0.00,VWS V13.01,2012-05-13 18:07:00,
2012-05-13 13:12:00,82.9,50.0,30.09,NW,315,2.7,5.8,32,0.00,,,0.00,VWS V13.01,2012-05-13 18:12:00,
2012-05-13 13:17:00,82.7,49.9,30.09,NW,304,3.6,3.6,32,0.00,,,0.00,VWS V13.01,2012-05-13 18:17:00,
2012-05-13 13:22:00,83.1,50.2,30.09,NNE,31,5.4,6.3,32,0.00,,,0.00,VWS V13.01,2012-05-13 18:22:00,
2012-05-13 13:27:00,82.7,49.9,30.09,WNW,288,0.0,4.0,32,0.00,,,0.00,VWS V13.01,2012-05-13 18:27:00,
2012-05-13 13:32:00,82.9,50.0,30.09,NE,41,8.7,8.7,32,0.00,,,0.00,VWS V13.01,2012-05-13 18:32:00,
2012-05-13 13:37:00,82.7,49.9,30.09,South,171,0.0,2.2,32,0.00,,,0.00,VWS V13.01,2012-05-13 18:37:00,
2012-05-13 13:42:00,83.4,50.5,30.09,NE,42,3.1,4.0,32,0.00,,,0.00,VWS V13.01,2012-05-13 18:42:00,
2012-05-13 13:47:00,83.8,50.0,30.09,North,1,3.6,4.0,31,0.00,,,0.00,VWS V13.01,2012-05-13 18:47:00,
2012-05-13 13:52:00,84.1,50.3,30.09,WSW,237,2.2,2.2,31,0.00,,,0.00,VWS V13.01,2012-05-13 18:52:00,
2012-05-13 13:57:00,84.1,50.3,30.09,North,358,2.2,2.2,31,0.00,,,0.00,VWS V13.01,2012-05-13 18:57:00,
2012-05-13 14:02:00,84.5,50.6,30.09,NNE,23,0.0,3.6,31,0.00,,,0.00,VWS V13.01,2012-05-13 19:02:00,
2012-05-13 14:07:00,84.5,50.6,30.09,NNW,333,4.0,4.0,31,0.00,,,0.00,VWS V13.01,2012-05-13 19:07:00,
2012-05-13 14:12:00,84.1,49.4,30.09,NNE,24,2.7,2.7,30,0.00,,,0.00,VWS V13.01,2012-05-13 19:12:00,
2012-05-13 14:17:00,84.5,50.6,30.06,NE,34,3.6,7.6,31,0.00,,,0.00,VWS V13.01,2012-05-13 19:17:00,
2012-05-13 14:22:00,84.1,50.3,30.06,WNW,302,2.7,2.7,31,0.00,,,0.00,VWS V13.01,2012-05-13 19:22:00,
2012-05-13 14:27:00,84.0,49.2,30.06,WNW,299,3.1,3.1,30,0.00,,,0.00,VWS V13.01,2012-05-13 19:27:00,
2012-05-13 14:32:00,83.6,49.8,30.06,WSW,242,4.9,4.9,31,0.00,,,0.00,VWS V13.01,2012-05-13 19:32:00,
2012-05-13 14:37:00,82.7,49.9,30.06,WSW,252,3.1,3.1,32,0.00,,,0.00,VWS V13.01,2012-05-13 19:37:00,
2012-05-13 14:42:00,83.1,49.3,30.06,ESE,109,3.1,4.0,31,0.00,,,0.00,VWS V13.01,2012-05-13 19:42:00,
2012-05-13 14:47:00,83.8,50.0,30.06,NE,49,4.0,4.0,31,0.00,,,0.00,VWS V13.01,2012-05-13 19:47:00,
2012-05-13 14:52:00,84.0,50.1,30.06,NW,314,2.7,2.7,31,0.00,,,0.00,VWS V13.01,2012-05-13 19:52:00,
2012-05-13 14:57:00,84.5,50.6,30.06,NNW,345,4.0,4.0,31,0.00,,,0.00,VWS V13.01,2012-05-13 19:57:00,
2012-05-13 15:02:00,85.2,50.3,30.06,WNW,303,2.2,3.1,30,0.00,,,0.00,VWS V13.01,2012-05-13 20:02:00,
2012-05-13 15:07:00,85.8,50.8,30.06,NW,322,0.0,3.6,30,0.00,,,0.00,VWS V13.01,2012-05-13 20:07:00,
2012-05-13 15:12:00,85.2,51.2,30.06,NNE,15,3.1,3.6,31,0.00,,,0.00,VWS V13.01,2012-05-13 20:12:00,
2012-05-13 15:17:00,84.5,49.7,30.06,NNW,341,2.7,2.7,30,0.00,,,0.00,VWS V13.01,2012-05-13 20:17:00,
2012-05-13 15:22:00,83.8,49.1,30.06,North,10,2.7,4.0,30,0.00,,,0.00,VWS V13.01,2012-05-13 20:22:00,
2012-05-13 15:27:00,83.1,50.2,30.06,NW,304,2.7,2.7,32,0.00,,,0.00,VWS V13.01,2012-05-13 20:27:00,
2012-05-13 15:32:00,83.2,49.5,30.06,WSW,249,4.0,5.4,31,0.00,,,0.00,VWS V13.01,2012-05-13 20:32:00,
2012-05-13 15:37:00,82.7,49.0,30.06,WSW,250,4.0,4.0,31,0.00,,,0.00,VWS V13.01,2012-05-13 20:37:00,
2012-05-13 15:42:00,82.0,49.2,30.06,West,280,4.9,4.9,32,0.00,,,0.00,VWS V13.01,2012-05-13 20:42:00,
2012-05-13 15:47:00,81.6,48.9,30.06,West,273,3.6,4.5,32,0.00,,,0.00,VWS V13.01,2012-05-13 20:47:00,
2012-05-13 15:52:00,82.2,49.4,30.06,WNW,302,2.7,2.7,32,0.00,,,0.00,VWS V13.01,2012-05-13 20:52:00,
2012-05-13 15:57:00,83.1,50.2,30.06,NW,319,3.6,3.6,32,0.00,,,0.00,VWS V13.01,2012-05-13 20:57:00,
2012-05-13 16:02:00,84.0,50.1,30.03,SW,231,3.1,3.1,31,0.00,,,0.00,VWS V13.01,2012-05-13 21:02:00,
2012-05-13 16:07:00,84.3,51.3,30.03,WSW,258,5.8,5.8,32,0.00,,,0.00,VWS V13.01,2012-05-13 21:07:00,
2012-05-13 16:12:00,83.4,49.6,30.03,West,267,2.7,2.7,31,0.00,,,0.00,VWS V13.01,2012-05-13 21:12:00,
2012-05-13 16:17:00,83.1,49.3,30.03,West,279,2.2,2.7,31,0.00,,,0.00,VWS V13.01,2012-05-13 21:17:00,
2012-05-13 16:22:00,83.2,49.5,30.03,NNW,330,2.7,2.7,31,0.00,,,0.00,VWS V13.01,2012-05-13 21:22:00,
2012-05-13 16:27:00,84.3,50.4,30.03,NE,50,3.6,3.6,31,0.00,,,0.00,VWS V13.01,2012-05-13 21:27:00,
2012-05-13 16:32:00,84.0,50.1,30.03,NNE,23,4.0,4.0,31,0.00,,,0.00,VWS V13.01,2012-05-13 21:32:00,
2012-05-13 16:37:00,83.8,50.0,30.03,NE,39,3.6,3.6,31,0.00,,,0.00,VWS V13.01,2012-05-13 21:37:00,
2012-05-13 16:42:00,84.0,50.1,30.03,NNW,332,2.7,4.0,31,0.00,,,0.00,VWS V13.01,2012-05-13 21:42:00,
2012-05-13 16:47:00,84.5,50.6,30.03,NNE,20,3.6,3.6,31,0.00,,,0.00,VWS V13.01,2012-05-13 21:47:00,
2012-05-13 16:52:00,84.9,50.9,30.03,North,351,3.6,4.0,31,0.00,,,0.00,VWS V13.01,2012-05-13 21:52:00,
2012-05-13 16:57:00,84.7,49.8,30.03,West,274,3.6,3.6,30,0.00,,,0.00,VWS V13.01,2012-05-13 21:57:00,
2012-05-13 17:02:00,83.8,50.0,30.03,WNW,299,4.9,4.9,31,0.00,,,0.00,VWS V13.01,2012-05-13 22:02:00,
2012-05-13 17:07:00,83.2,49.5,30.03,WNW,295,6.3,6.3,31,0.00,,,0.00,VWS V13.01,2012-05-13 22:07:00,
2012-05-13 17:12:00,83.2,50.3,30.03,West,275,3.1,3.1,32,0.00,,,0.00,VWS V13.01,2012-05-13 22:12:00,
2012-05-13 17:17:00,83.6,49.8,30.03,West,259,3.6,5.8,31,0.00,,,0.00,VWS V13.01,2012-05-13 22:17:00,
2012-05-13 17:22:00,83.6,49.8,30.03,WSW,252,4.0,4.0,31,0.00,,,0.00,VWS V13.01,2012-05-13 22:22:00,
2012-05-13 17:27:00,83.2,49.5,30.03,WSW,254,2.7,2.7,31,0.00,,,0.00,VWS V13.01,2012-05-13 22:27:00,
2012-05-13 17:32:00,82.5,49.7,30.03,West,262,0.0,2.2,32,0.00,,,0.00,VWS V13.01,2012-05-13 22:32:00,
2012-05-13 17:37:00,82.2,49.4,30.03,WSW,250,2.7,2.7,32,0.00,,,0.00,VWS V13.01,2012-05-13 22:37:00,
2012-05-13 17:42:00,81.6,49.8,30.03,WSW,255,2.7,3.1,33,0.00,,,0.00,VWS V13.01,2012-05-13 22:42:00,
2012-05-13 17:47:00,81.4,49.6,30.03,NW,304,3.1,3.1,33,0.00,,,0.00,VWS V13.01,2012-05-13 22:47:00,
2012-05-13 17:52:00,81.3,50.2,30.03,WNW,295,0.0,0.0,34,0.00,,,0.00,VWS V13.01,2012-05-13 22:52:00,
2012-05-13 17:57:00,80.9,49.9,30.03,WNW,293,0.0,0.0,34,0.00,,,0.00,VWS V13.01,2012-05-13 22:57:00,
2012-05-13 18:02:00,80.9,49.9,30.03,WNW,297,0.0,0.0,34,0.00,,,0.00,VWS V13.01,2012-05-13 23:02:00,
2012-05-13 18:07:00,80.9,49.9,30.03,West,277,0.0,0.0,34,0.00,,,0.00,VWS V13.01,2012-05-13 23:07:00,
2012-05-13 18:12:00,80.9,50.7,30.03,West,280,0.0,0.0,35,0.00,,,0.00,VWS V13.01,2012-05-13 23:12:00,
2012-05-13 18:17:00,80.7,49.8,30.03,WNW,298,3.6,4.5,34,0.00,,,0.00,VWS V13.01,2012-05-13 23:17:00,
2012-05-13 18:22:00,80.4,50.2,30.03,NW,309,0.0,0.0,35,0.00,,,0.00,VWS V13.01,2012-05-13 23:22:00,
2012-05-13 18:27:00,80.4,51.0,30.03,NW,309,0.0,0.0,36,0.00,,,0.00,VWS V13.01,2012-05-13 23:27:00,
2012-05-13 18:32:00,80.4,51.7,30.03,North,353,2.7,3.1,37,0.00,,,0.00,VWS V13.01,2012-05-13 23:32:00,
2012-05-13 18:37:00,80.0,52.8,30.03,North,2,3.6,3.6,39,0.00,,,0.00,VWS V13.01,2012-05-13 23:37:00,
2012-05-13 18:42:00,79.5,53.0,30.03,NNE,30,3.1,4.9,40,0.00,,,0.00,VWS V13.01,2012-05-13 23:42:00,
2012-05-13 18:47:00,79.1,52.7,30.03,North,357,2.2,2.2,40,0.00,,,0.00,VWS V13.01,2012-05-13 23:47:00,
2012-05-13 18:52:00,78.9,53.2,30.03,NNW,328,3.6,3.6,41,0.00,,,0.00,VWS V13.01,2012-05-13 23:52:00,
2012-05-13 18:57:00,78.4,52.8,30.03,NW,316,8.3,8.3,41,0.00,,,0.00,VWS V13.01,2012-05-13 23:57:00,
2012-05-13 19:02:00,77.5,52.0,30.03,NNE,14,4.0,5.4,41,0.00,,,0.00,VWS V13.01,2012-05-14 00:02:00,
2012-05-13 19:07:00,77.3,52.5,30.03,North,8,4.0,4.0,42,0.00,,,0.00,VWS V13.01,2012-05-14 00:07:00,
2012-05-13 19:12:00,76.6,51.8,30.03,North,3,5.8,5.8,42,0.00,,,0.00,VWS V13.01,2012-05-14 00:12:00,
2012-05-13 19:17:00,76.0,52.0,30.03,North,355,2.7,2.7,43,0.00,,,0.00,VWS V13.01,2012-05-14 00:17:00,
2012-05-13 19:22:00,75.5,51.5,30.03,NNE,12,3.1,4.0,43,0.00,,,0.00,VWS V13.01,2012-05-14 00:22:00,
2012-05-13 19:27:00,75.3,51.9,30.03,North,357,2.7,2.7,44,0.00,,,0.00,VWS V13.01,2012-05-14 00:27:00,
2012-05-13 19:32:00,75.1,51.1,30.03,North,352,4.0,4.9,43,0.00,,,0.00,VWS V13.01,2012-05-14 00:32:00,
2012-05-13 19:37:00,75.1,51.1,30.03,North,7,0.0,0.0,43,0.00,,,0.00,VWS V13.01,2012-05-14 00:37:00,
2012-05-13 19:42:00,75.0,51.0,30.03,NW,323,0.0,0.0,43,0.00,,,0.00,VWS V13.01,2012-05-14 00:42:00,
2012-05-13 19:47:00,74.8,50.8,30.03,NNW,330,2.2,2.2,43,0.00,,,0.00,VWS V13.01,2012-05-14 00:47:00,
2012-05-13 19:52:00,74.6,51.3,30.03,NW,325,2.7,2.7,44,0.00,,,0.00,VWS V13.01,2012-05-14 00:52:00,
2012-05-13 19:57:00,74.4,51.1,30.03,NW,316,0.0,2.2,44,0.00,,,0.00,VWS V13.01,2012-05-14 00:57:00,
2012-05-13 20:02:00,74.2,51.5,30.03,NW,309,0.0,0.0,45,0.00,,,0.00,VWS V13.01,2012-05-14 01:02:00,
2012-05-13 20:07:00,74.1,51.4,30.03,NW,307,0.0,0.0,45,0.00,,,0.00,VWS V13.01,2012-05-14 01:07:00,
2012-05-13 20:12:00,73.7,51.1,30.03,NNW,335,0.0,0.0,45,0.00,,,0.00,VWS V13.01,2012-05-14 01:12:00,
2012-05-13 20:18:00,73.5,51.5,30.03,NNW,331,0.0,0.0,46,0.00,,,0.00,VWS V13.01,2012-05-14 01:18:00,
2012-05-13 20:23:00,73.2,51.2,30.03,North,356,0.0,0.0,46,0.00,,,0.00,VWS V13.01,2012-05-14 01:23:00,
2012-05-13 20:28:00,73.0,51.6,30.03,North,356,0.0,0.0,47,0.00,,,0.00,VWS V13.01,2012-05-14 01:28:00,
2012-05-13 20:33:00,72.6,51.8,30.03,North,356,0.0,0.0,48,0.00,,,0.00,VWS V13.01,2012-05-14 01:33:00,
2012-05-13 20:38:00,72.3,51.5,30.03,NNW,340,0.0,0.0,48,0.00,,,0.00,VWS V13.01,2012-05-14 01:38:00,
2012-05-13 20:43:00,72.1,51.9,30.03,NNW,340,0.0,0.0,49,0.00,,,0.00,VWS V13.01,2012-05-14 01:43:00,
2012-05-13 20:48:00,71.7,52.1,30.03,NNW,340,0.0,0.0,50,0.00,,,0.00,VWS V13.01,2012-05-14 01:48:00,
2012-05-13 20:53:00,71.4,52.3,30.03,NNW,340,0.0,0.0,51,0.00,,,0.00,VWS V13.01,2012-05-14 01:53:00,
2012-05-13 20:58:00,71.2,52.2,30.03,NNW,340,0.0,0.0,51,0.00,,,0.00,VWS V13.01,2012-05-14 01:58:00,
2012-05-13 21:03:00,71.0,52.0,30.03,NNW,340,0.0,0.0,51,0.00,,,0.00,VWS V13.01,2012-05-14 02:03:00,
2012-05-13 21:08:00,70.6,52.7,30.03,WNW,300,0.0,0.0,53,0.00,,,0.00,VWS V13.01,2012-05-14 02:08:00,
2012-05-13 21:13:00,70.1,52.7,30.03,WNW,300,0.0,0.0,54,0.00,,,0.00,VWS V13.01,2012-05-14 02:13:00,
2012-05-13 21:18:00,69.4,52.5,30.03,WNW,300,0.0,0.0,55,0.00,,,0.00,VWS V13.01,2012-05-14 02:18:00,
2012-05-13 21:23:00,69.0,52.7,30.03,WNW,300,0.0,0.0,56,0.00,,,0.00,VWS V13.01,2012-05-14 02:23:00,
2012-05-13 21:28:00,68.7,52.3,30.03,WNW,299,0.0,0.0,56,0.00,,,0.00,VWS V13.01,2012-05-14 02:28:00,
2012-05-13 21:33:00,68.3,53.0,30.06,WNW,299,0.0,0.0,58,0.00,,,0.00,VWS V13.01,2012-05-14 02:33:00,
2012-05-13 21:38:00,68.1,52.8,30.06,WNW,296,0.0,0.0,58,0.00,,,0.00,VWS V13.01,2012-05-14 02:38:00,
2012-05-13 21:43:00,68.1,53.3,30.06,SSE,150,0.0,0.0,59,0.00,,,0.00,VWS V13.01,2012-05-14 02:43:00,
2012-05-13 21:48:00,67.9,53.1,30.06,SSE,150,0.0,0.0,59,0.00,,,0.00,VWS V13.01,2012-05-14 02:48:00,
2012-05-13 21:53:00,67.9,53.1,30.06,SSE,147,0.0,0.0,59,0.00,,,0.00,VWS V13.01,2012-05-14 02:53:00,
2012-05-13 21:58:00,67.8,52.9,30.06,SSE,147,0.0,0.0,59,0.00,,,0.00,VWS V13.01,2012-05-14 02:58:00,
2012-05-13 22:03:00,67.2,54.6,30.06,WSW,238,0.0,0.0,64,0.00,,,0.00,VWS V13.01,2012-05-14 03:03:00,
2012-05-13 22:08:00,66.5,54.4,30.06,WSW,238,0.0,0.0,65,0.00,,,0.00,VWS V13.01,2012-05-14 03:08:00,
2012-05-13 22:13:00,66.5,54.0,30.06,WSW,238,0.0,0.0,64,0.00,,,0.00,VWS V13.01,2012-05-14 03:13:00,
2012-05-13 22:18:00,66.3,54.6,30.06,SSW,209,0.0,0.0,66,0.00,,,0.00,VWS V13.01,2012-05-14 03:18:00,
2012-05-13 22:23:00,66.3,55.0,30.06,SSW,200,0.0,0.0,67,0.00,,,0.00,VWS V13.01,2012-05-14 03:23:00,
2012-05-13 22:28:00,66.1,55.3,30.06,SSW,200,0.0,0.0,68,0.00,,,0.00,VWS V13.01,2012-05-14 03:28:00,
2012-05-13 22:33:00,66.0,55.1,30.06,SW,227,0.0,0.0,68,0.00,,,0.00,VWS V13.01,2012-05-14 03:33:00,
2012-05-13 22:38:00,66.0,55.9,30.06,SW,235,0.0,0.0,70,0.00,,,0.00,VWS V13.01,2012-05-14 03:38:00,
2012-05-13 22:43:00,66.0,57.1,30.06,SW,235,0.0,0.0,73,0.00,,,0.00,VWS V13.01,2012-05-14 03:43:00,
2012-05-13 22:48:00,65.8,56.5,30.06,WSW,241,0.0,0.0,72,0.00,,,0.00,VWS V13.01,2012-05-14 03:48:00,
2012-05-13 22:53:00,65.6,56.3,30.06,WSW,241,0.0,0.0,72,0.00,,,0.00,VWS V13.01,2012-05-14 03:53:00,
2012-05-13 22:58:00,65.2,56.4,30.06,WSW,241,0.0,0.0,73,0.00,,,0.00,VWS V13.01,2012-05-14 03:58:00,
2012-05-13 23:00:00,65.1,56.2,30.06,WSW,241,0.0,0.0,73,0.00,,,0.00,VWS V13.01,2012-05-14 04:00:00,
2012-05-13 23:05:00,64.9,57.1,30.06,NNE,31,0.0,2.7,76,0.00,,,0.00,VWS V13.01,2012-05-14 04:05:00,
2012-05-13 23:10:00,64.5,57.2,30.06,NNE,31,0.0,0.0,77,0.00,,,0.00,VWS V13.01,2012-05-14 04:10:00,
2012-05-13 23:15:00,64.2,57.2,30.06,WSW,244,0.0,0.0,78,0.00,,,0.00,VWS V13.01,2012-05-14 04:15:00,
2012-05-13 23:20:00,64.0,57.0,30.06,WSW,244,0.0,0.0,78,0.00,,,0.00,VWS V13.01,2012-05-14 04:20:00,
2012-05-13 23:25:00,63.8,57.5,30.06,WSW,244,0.0,0.0,80,0.00,,,0.00,VWS V13.01,2012-05-14 04:25:00,
2012-05-13 23:30:00,63.6,57.7,30.06,WSW,244,0.0,0.0,81,0.00,,,0.00,VWS V13.01,2012-05-14 04:30:00,
2012-05-13 23:35:00,63.6,57.7,30.06,WSW,244,0.0,0.0,81,0.00,,,0.00,VWS V13.01,2012-05-14 04:35:00,
2012-05-13 23:40:00,63.3,57.3,30.06,WSW,244,0.0,0.0,81,0.00,,,0.00,VWS V13.01,2012-05-14 04:40:00,
2012-05-13 23:45:00,63.1,57.5,30.06,WSW,244,0.0,0.0,82,0.00,,,0.00,VWS V13.01,2012-05-14 04:45:00,
2012-05-13 23:50:00,62.7,57.5,30.06,NNE,21,0.0,0.0,83,0.00,,,0.00,VWS V13.01,2012-05-14 04:50:00,
2012-05-13 23:52:00,62.7,57.5,30.06,NNE,21,0.0,0.0,83,0.00,,,0.00,VWS V13.01,2012-05-14 04:52:00,
2012-05-13 23:57:00,62.5,57.3,30.06,North,11,0.0,0.0,83,0.00,,,0.00,VWS V13.01,2012-05-14 04:57:00,